Time;durP1;ratioP1;P1;durP2;ratioP2;P2;SDS_P1;SDS_P2;PMS_P1;PMS_P2;Temp;Humidity;BMP_temperature;BMP_pressure;BME280_temperature;BME280_humidity;BME280_pressure;Samples;Min_cycle;Max_cycle;Signal;HPM_P1;HPM_P2
2023/08/24 00:02:06;;;;;;;1.63;1.25;;;;;;;;;;5886281;28;20519;-75
2023/08/24 00:04:57;;;;;;;1.05;0.82;;;;;;;;;;5888482;28;20562;-74
2023/08/24 00:07:54;;;;;;;2.38;1.02;;;;;;;;;;5888113;28;20033;-75
2023/08/24 00:10:48;;;;;;;7.35;1.33;;;;;;;;;;5888177;28;20051;-76
2023/08/24 00:13:52;;;;;;;1.52;1.27;;;;;;;;;;5871725;28;20045;-75
2023/08/24 00:16:42;;;;;;;1.83;1.10;;;;;;;;;;5887798;28;20048;-74
2023/08/24 00:19:39;;;;;;;6.85;0.77;;;;;;;;;;5887657;28;20052;-73
2023/08/24 00:22:30;;;;;;;1.08;0.65;;;;;;;;;;5870029;28;20052;-73
2023/08/24 00:25:27;;;;;;;2.72;1.05;;;;;;;;;;5887556;28;20044;-76
2023/08/24 00:28:18;;;;;;;1.17;1.08;;;;;;;;;;5887640;28;20067;-75
2023/08/24 00:31:16;;;;;;;1.27;1.15;;;;;;;;;;5870601;28;20518;-75
2023/08/24 00:34:07;;;;;;;1.50;0.95;;;;;;;;;;5869738;28;20049;-75
2023/08/24 00:37:04;;;;;;;7.63;1.75;;;;;;;;;;5887456;28;20388;-74
2023/08/24 00:40:04;;;;;;;1.45;0.68;;;;;;;;;;5887897;28;20570;-74
2023/08/24 00:43:02;;;;;;;0.80;0.80;;;;;;;;;;5886972;28;20037;-75
2023/08/24 00:46:00;;;;;;;1.00;0.90;;;;;;;;;;5887322;28;20052;-73
2023/08/24 00:48:57;;;;;;;5.18;1.20;;;;;;;;;;5871097;28;20045;-74
2023/08/24 00:51:48;;;;;;;1.13;0.77;;;;;;;;;;5887180;28;20037;-74
2023/08/24 00:54:46;;;;;;;0.50;0.50;;;;;;;;;;5870483;28;20044;-74
2023/08/24 00:57:39;;;;;;;2.58;0.82;;;;;;;;;;5869680;28;20041;-74
2023/08/24 01:00:37;;;;;;;2.92;1.10;;;;;;;;;;5870798;28;20506;-75
2023/08/24 01:03:28;;;;;;;2.92;1.27;;;;;;;;;;5887351;28;20143;-73
2023/08/24 01:06:25;;;;;;;1.52;1.23;;;;;;;;;;5887137;28;20052;-75
2023/08/24 01:09:16;;;;;;;1.20;1.10;;;;;;;;;;5887039;28;20071;-76
2023/08/24 01:12:44;;;;;;;4.05;1.45;;;;;;;;;;5886979;28;20045;-74
2023/08/24 01:16:19;;;;;;;0.90;0.90;;;;;;;;;;5887065;28;20048;-75
2023/08/24 01:19:43;;;;;;;3.88;1.48;;;;;;;;;;5837770;28;20127;-75
2023/08/24 01:22:43;;;;;;;1.13;0.88;;;;;;;;;;5840014;28;20057;-77
2023/08/24 01:26:18;;;;;;;2.15;1.25;;;;;;;;;;5870597;28;20041;-76
2023/08/24 01:29:09;;;;;;;1.55;1.13;;;;;;;;;;5863793;28;20495;-74
2023/08/24 01:32:11;;;;;;;1.10;0.60;;;;;;;;;;5886504;28;20048;-74
2023/08/24 01:35:05;;;;;;;2.97;0.93;;;;;;;;;;5886415;28;20292;-77
2023/08/24 01:38:03;;;;;;;1.45;0.80;;;;;;;;;;5870239;28;20045;-74
2023/08/24 01:41:21;;;;;;;0.85;0.73;;;;;;;;;;5869687;28;20488;-77
2023/08/24 01:44:21;;;;;;;2.28;1.02;;;;;;;;;;5886397;28;20055;-75
2023/08/24 01:47:12;;;;;;;5.03;1.38;;;;;;;;;;5869111;28;20488;-73
2023/08/24 01:50:10;;;;;;;0.77;0.77;;;;;;;;;;5869771;28;20059;-75
2023/08/24 01:53:01;;;;;;;0.60;0.60;;;;;;;;;;5869060;28;20464;-76
2023/08/24 01:55:58;;;;;;;1.10;0.75;;;;;;;;;;5870898;28;20037;-73
2023/08/24 01:58:49;;;;;;;1.35;1.20;;;;;;;;;;5890695;28;20392;-74
2023/08/24 02:01:46;;;;;;;1.33;1.00;;;;;;;;;;5890487;28;20049;-74
2023/08/24 02:04:37;;;;;;;0.90;0.90;;;;;;;;;;5890626;28;20041;-77
2023/08/24 02:07:34;;;;;;;1.40;1.13;;;;;;;;;;5882256;28;20127;-74
2023/08/24 02:10:25;;;;;;;1.98;1.10;;;;;;;;;;5890167;28;20431;-74
2023/08/24 02:13:22;;;;;;;1.38;0.95;;;;;;;;;;5890250;28;20047;-75
2023/08/24 02:16:13;;;;;;;0.63;0.55;;;;;;;;;;5890449;28;20513;-74
2023/08/24 02:19:10;;;;;;;2.75;0.93;;;;;;;;;;5890065;28;20052;-75
2023/08/24 02:22:01;;;;;;;0.82;0.80;;;;;;;;;;5890237;28;20048;-75
2023/08/24 02:24:58;;;;;;;0.88;0.52;;;;;;;;;;5890345;28;20049;-75
2023/08/24 02:27:49;;;;;;;1.38;0.93;;;;;;;;;;5889967;28;20045;-73
2023/08/24 02:30:46;;;;;;;0.70;0.70;;;;;;;;;;5889929;28;20049;-75
2023/08/24 02:33:37;;;;;;;0.82;0.82;;;;;;;;;;5889143;28;20045;-73
2023/08/24 02:36:35;;;;;;;2.28;1.38;;;;;;;;;;5880753;28;20086;-74
2023/08/24 02:39:25;;;;;;;1.23;0.88;;;;;;;;;;5889761;28;20044;-74
2023/08/24 02:42:22;;;;;;;1.23;0.98;;;;;;;;;;5889714;28;20473;-74
2023/08/24 02:45:13;;;;;;;1.23;1.13;;;;;;;;;;5885816;28;20042;-74
2023/08/24 02:48:10;;;;;;;1.73;0.80;;;;;;;;;;5886253;28;20480;-76
2023/08/24 02:51:03;;;;;;;2.28;0.50;;;;;;;;;;5881648;28;20041;-75
2023/08/24 02:54:00;;;;;;;1.27;0.70;;;;;;;;;;5890095;28;20060;-73
2023/08/24 02:56:51;;;;;;;1.38;0.80;;;;;;;;;;5881505;28;20361;-76
2023/08/24 02:59:48;;;;;;;1.00;0.98;;;;;;;;;;5889033;28;20045;-75
2023/08/24 03:02:39;;;;;;;1.02;0.95;;;;;;;;;;5881962;28;20045;-73
2023/08/24 03:05:36;;;;;;;1.50;1.25;;;;;;;;;;5882383;28;20042;-74
2023/08/24 03:08:28;;;;;;;0.45;0.45;;;;;;;;;;5887928;28;20045;-75
2023/08/24 03:11:25;;;;;;;1.13;1.00;;;;;;;;;;5872699;28;20045;-74
2023/08/24 03:14:18;;;;;;;0.50;0.50;;;;;;;;;;5889103;28;20040;-75
2023/08/24 03:17:15;;;;;;;0.93;0.85;;;;;;;;;;5889027;28;20045;-73
2023/08/24 03:20:13;;;;;;;2.67;1.40;;;;;;;;;;5868587;28;20100;-75
2023/08/24 03:23:05;;;;;;;1.17;1.08;;;;;;;;;;5884938;28;20045;-76
2023/08/24 03:26:03;;;;;;;0.77;0.65;;;;;;;;;;5880459;28;20050;-76
2023/08/24 03:28:53;;;;;;;0.90;0.75;;;;;;;;;;5889206;28;20051;-73
2023/08/24 03:31:50;;;;;;;2.47;1.20;;;;;;;;;;5888895;28;20499;-75
2023/08/24 03:34:41;;;;;;;0.73;0.60;;;;;;;;;;5888713;28;20059;-75
2023/08/24 03:37:38;;;;;;;2.00;1.42;;;;;;;;;;5888539;28;20063;-74
2023/08/24 03:40:36;;;;;;;3.45;0.75;;;;;;;;;;5888725;28;20472;-75
2023/08/24 03:43:26;;;;;;;1.10;1.00;;;;;;;;;;5888550;28;20167;-76
2023/08/24 03:46:23;;;;;;;3.15;1.42;;;;;;;;;;5888296;28;20175;-73
2023/08/24 03:49:14;;;;;;;1.98;0.82;;;;;;;;;;5888427;28;20127;-76
2023/08/24 03:52:11;;;;;;;1.23;1.13;;;;;;;;;;5888259;28;20099;-76
2023/08/24 03:55:06;;;;;;;1.42;1.17;;;;;;;;;;5888396;28;20041;-75
2023/08/24 03:58:03;;;;;;;;;;;;;;;;;;5888777;28;20048;-75
2023/08/24 04:00:55;;;;;;;4.03;1.55;;;;;;;;;;5887935;28;20380;-75
2023/08/24 04:03:52;;;;;;;1.95;1.50;;;;;;;;;;5911779;28;20102;-76
2023/08/24 04:06:43;;;;;;;0.65;0.65;;;;;;;;;;5911179;28;20048;-77
2023/08/24 04:09:40;;;;;;;0.82;0.60;;;;;;;;;;5911519;28;20044;-75
2023/08/24 04:12:32;;;;;;;0.65;0.65;;;;;;;;;;5911200;28;20051;-74
2023/08/24 04:15:29;;;;;;;1.52;1.20;;;;;;;;;;5911301;28;20048;-76
2023/08/24 04:18:20;;;;;;;1.45;0.82;;;;;;;;;;5910795;28;20048;-75
2023/08/24 04:21:17;;;;;;;0.77;0.68;;;;;;;;;;5910955;28;20059;-75
2023/08/24 04:24:08;;;;;;;1.35;1.08;;;;;;;;;;5910999;28;20047;-73
2023/08/24 04:27:06;;;;;;;0.80;0.80;;;;;;;;;;5910743;28;20056;-74
2023/08/24 04:29:57;;;;;;;1.48;0.88;;;;;;;;;;5911486;28;20088;-73
2023/08/24 04:32:54;;;;;;;1.00;0.93;;;;;;;;;;5911065;28;20040;-74
2023/08/24 04:35:48;;;;;;;0.77;0.77;;;;;;;;;;5910032;28;20114;-74
2023/08/24 04:39:07;;;;;;;0.75;0.75;;;;;;;;;;5859921;28;20091;-73
2023/08/24 04:42:05;;;;;;;0.60;0.60;;;;;;;;;;5854801;28;20037;-75
2023/08/24 04:45:04;;;;;;;4.05;1.42;;;;;;;;;;5871550;28;20041;-74
2023/08/24 04:47:54;;;;;;;1.20;1.10;;;;;;;;;;5874488;28;20041;-75
2023/08/24 04:50:56;;;;;;;2.40;1.00;;;;;;;;;;5871932;28;20095;-74
2023/08/24 04:53:46;;;;;;;0.80;0.80;;;;;;;;;;5870510;28;20064;-73
2023/08/24 04:56:44;;;;;;;1.85;0.95;;;;;;;;;;5862838;28;20042;-75
2023/08/24 04:59:35;;;;;;;2.65;1.95;;;;;;;;;;5868009;28;20044;-76
2023/08/24 05:02:32;;;;;;;2.15;1.52;;;;;;;;;;5880834;28;20052;-74
2023/08/24 05:05:23;;;;;;;3.15;1.67;;;;;;;;;;5873794;28;20047;-73
2023/08/24 05:08:20;;;;;;;1.27;1.15;;;;;;;;;;5863694;28;20049;-75
2023/08/24 05:11:20;;;;;;;1.17;0.82;;;;;;;;;;5868674;28;20067;-76
2023/08/24 05:14:17;;;;;;;1.08;0.98;;;;;;;;;;5866352;28;20408;-73
2023/08/24 05:17:08;;;;;;;0.85;0.85;;;;;;;;;;5862478;28;20488;-74
2023/08/24 05:20:10;;;;;;;1.65;1.20;;;;;;;;;;5863023;28;20465;-74
2023/08/24 05:23:01;;;;;;;2.03;1.42;;;;;;;;;;5883663;28;20057;-73
2023/08/24 05:26:00;;;;;;;1.77;1.00;;;;;;;;;;5869313;28;20052;-74
2023/08/24 05:28:52;;;;;;;2.40;1.08;;;;;;;;;;5886818;28;20174;-75
2023/08/24 05:31:50;;;;;;;1.20;1.05;;;;;;;;;;5881484;28;20095;-73
2023/08/24 05:34:47;;;;;;;1.63;1.00;;;;;;;;;;5890023;28;20508;-74
2023/08/24 05:37:38;;;;;;;1.73;1.48;;;;;;;;;;5890478;28;20068;-75
2023/08/24 05:40:37;;;;;;;2.15;1.10;;;;;;;;;;5888250;28;20649;-75
2023/08/24 05:43:27;;;;;;;1.13;0.93;;;;;;;;;;5911858;28;20440;-76
2023/08/24 05:46:25;;;;;;;1.52;1.30;;;;;;;;;;5890034;28;20045;-75
2023/08/24 05:49:16;;;;;;;5.55;1.92;;;;;;;;;;5888220;28;20037;-75
2023/08/24 05:52:13;;;;;;;3.15;1.42;;;;;;;;;;5871383;28;20128;-76
2023/08/24 05:55:10;;;;;;;6.53;2.08;;;;;;;;;;5889985;28;20479;-74
2023/08/24 05:58:01;;;;;;;13.52;2.65;;;;;;;;;;5890672;28;20051;-76
2023/08/24 06:00:59;;;;;;;9.80;3.17;;;;;;;;;;5887871;28;20518;-73
2023/08/24 06:03:50;;;;;;;6.88;2.30;;;;;;;;;;5867515;28;20038;-76
2023/08/24 06:06:47;;;;;;;3.60;2.90;;;;;;;;;;5865474;28;20049;-75
2023/08/24 06:09:44;;;;;;;8.73;3.28;;;;;;;;;;5855588;28;20048;-74
2023/08/24 06:12:35;;;;;;;4.72;2.65;;;;;;;;;;5889788;28;20041;-75
2023/08/24 06:15:32;;;;;;;9.30;3.33;;;;;;;;;;5889976;28;20375;-76
2023/08/24 06:18:23;;;;;;;8.50;4.53;;;;;;;;;;5889910;28;20037;-74
2023/08/24 06:21:20;;;;;;;9.88;4.15;;;;;;;;;;5889661;28;20103;-76
2023/08/24 06:24:11;;;;;;;11.20;5.05;;;;;;;;;;5889916;28;20415;-76
2023/08/24 06:27:08;;;;;;;7.05;4.25;;;;;;;;;;5889589;28;20045;-74
2023/08/24 06:30:07;;;;;;;7.90;2.83;;;;;;;;;;5889919;28;20400;-76
2023/08/24 06:32:57;;;;;;;7.57;2.80;;;;;;;;;;5871854;28;20045;-76
2023/08/24 06:35:54;;;;;;;4.78;2.38;;;;;;;;;;5883123;28;20052;-74
2023/08/24 06:38:45;;;;;;;9.80;3.47;;;;;;;;;;5889390;28;20037;-74
2023/08/24 06:41:42;;;;;;;5.22;3.15;;;;;;;;;;5888155;28;20037;-74
2023/08/24 06:44:33;;;;;;;5.38;1.67;;;;;;;;;;5889711;28;20048;-75
2023/08/24 06:47:30;;;;;;;5.90;3.10;;;;;;;;;;5889586;28;20045;-75
2023/08/24 06:50:21;;;;;;;3.70;2.00;;;;;;;;;;5890127;28;20553;-76
2023/08/24 06:53:18;;;;;;;1.73;1.60;;;;;;;;;;5890037;28;20056;-74
2023/08/24 06:56:10;;;;;;;23.35;2.17;;;;;;;;;;5889330;28;20303;-74
2023/08/24 06:59:07;;;;;;;1.73;1.10;;;;;;;;;;5889806;28;20072;-76
2023/08/24 07:01:58;;;;;;;6.90;2.10;;;;;;;;;;5890201;28;20044;-77
2023/08/24 07:04:57;;;;;;;4.60;1.80;;;;;;;;;;5889168;28;20041;-75
2023/08/24 07:07:50;;;;;;;7.15;2.88;;;;;;;;;;5889349;28;20068;-76
2023/08/24 07:10:47;;;;;;;4.32;1.58;;;;;;;;;;5889419;28;20037;-76
2023/08/24 07:13:38;;;;;;;2.75;1.63;;;;;;;;;;5871821;28;20428;-76
2023/08/24 07:16:35;;;;;;;2.30;1.33;;;;;;;;;;5872520;28;20041;-75
2023/08/24 07:19:27;;;;;;;7.05;1.60;;;;;;;;;;5889205;28;20044;-75
2023/08/24 07:22:26;;;;;;;2.97;1.48;;;;;;;;;;5889329;28;20041;-76
2023/08/24 07:25:17;;;;;;;2.05;1.42;;;;;;;;;;5889093;28;20080;-74
2023/08/24 07:28:14;;;;;;;3.50;1.40;;;;;;;;;;5889071;28;20059;-74
2023/08/24 07:31:12;;;;;;;6.78;2.10;;;;;;;;;;5888604;28;20049;-75
2023/08/24 07:34:10;;;;;;;1.52;0.88;;;;;;;;;;5888384;28;20041;-76
2023/08/24 07:37:01;;;;;;;1.83;1.00;;;;;;;;;;5860103;28;20052;-75
2023/08/24 07:39:58;;;;;;;2.22;0.90;;;;;;;;;;5904596;28;20048;-76
2023/08/24 07:42:53;;;;;;;1.58;0.93;;;;;;;;;;5874145;28;20125;-75
2023/08/24 07:45:51;;;;;;;2.60;1.48;;;;;;;;;;5870164;28;20033;-76
2023/08/24 07:48:42;;;;;;;5.70;1.42;;;;;;;;;;5870063;28;20041;-76
2023/08/24 07:51:39;;;;;;;3.05;1.75;;;;;;;;;;5887417;28;20084;-75
2023/08/24 07:54:30;;;;;;;4.93;2.40;;;;;;;;;;5887078;28;20037;-76
2023/08/24 07:57:27;;;;;;;2.50;1.27;;;;;;;;;;5887859;28;20041;-77
2023/08/24 08:00:18;;;;;;;3.70;2.08;;;;;;;;;;5869897;28;20041;-76
2023/08/24 08:03:15;;;;;;;3.53;1.65;;;;;;;;;;5887873;28;20076;-75
2023/08/24 08:06:09;;;;;;;4.00;1.45;;;;;;;;;;5887691;28;20048;-74
2023/08/24 08:09:06;;;;;;;1.90;1.15;;;;;;;;;;5876386;28;20045;-78
2023/08/24 08:12:01;;;;;;;3.75;1.60;;;;;;;;;;5862369;28;20064;-77
2023/08/24 08:14:58;;;;;;;0.93;0.85;;;;;;;;;;5887977;28;20107;-77
2023/08/24 08:17:49;;;;;;;2.58;1.50;;;;;;;;;;5887212;28;20361;-77
2023/08/24 08:20:51;;;;;;;2.05;1.33;;;;;;;;;;5868781;28;20492;-75
2023/08/24 08:23:42;;;;;;;2.22;1.13;;;;;;;;;;5869601;28;20044;-74
2023/08/24 08:26:40;;;;;;;1.70;1.15;;;;;;;;;;5887203;28;20041;-74
2023/08/24 08:29:33;;;;;;;2.85;1.48;;;;;;;;;;5886791;28;20040;-76
2023/08/24 08:32:31;;;;;;;2.08;1.17;;;;;;;;;;5886887;28;20068;-75
2023/08/24 08:35:22;;;;;;;0.88;0.38;;;;;;;;;;5886803;28;20144;-74
2023/08/24 08:38:21;;;;;;;1.42;0.98;;;;;;;;;;5873808;28;20426;-73
2023/08/24 08:41:14;;;;;;;3.00;1.25;;;;;;;;;;5902170;28;20041;-76
2023/08/24 08:44:15;;;;;;;8.95;1.83;;;;;;;;;;5887451;28;20064;-76
2023/08/24 08:47:08;;;;;;;2.30;1.08;;;;;;;;;;5869498;28;20068;-76
2023/08/24 08:50:06;;;;;;;1.98;1.25;;;;;;;;;;5887940;28;20063;-75
2023/08/24 08:52:58;;;;;;;0.80;0.50;;;;;;;;;;5888295;28;20045;-76
2023/08/24 08:55:57;;;;;;;1.58;0.93;;;;;;;;;;5870498;28;20041;-76
2023/08/24 08:58:50;;;;;;;9.52;1.67;;;;;;;;;;5886607;28;20083;-75
2023/08/24 09:01:47;;;;;;;0.95;0.68;;;;;;;;;;5869970;28;20056;-77
2023/08/24 09:04:39;;;;;;;2.67;1.27;;;;;;;;;;5887089;28;20044;-75
2023/08/24 09:07:39;;;;;;;1.05;0.60;;;;;;;;;;5891217;28;20049;-74
2023/08/24 09:10:30;;;;;;;0.93;0.68;;;;;;;;;;5873757;28;20131;-77
2023/08/24 09:13:27;;;;;;;2.38;1.08;;;;;;;;;;5874827;28;20048;-76
2023/08/24 09:16:29;;;;;;;0.95;0.85;;;;;;;;;;5891211;28;20055;-77
2023/08/24 09:19:31;;;;;;;3.08;0.70;;;;;;;;;;5863243;28;20103;-74
2023/08/24 09:22:21;;;;;;;1.73;0.77;;;;;;;;;;5891129;28;20278;-77
2023/08/24 09:25:19;;;;;;;;;;;;;;;;;;5891676;28;20057;-74
2023/08/24 09:28:10;;;;;;;4.63;0.77;;;;;;;;;;5891627;28;19925;-75
2023/08/24 09:31:08;;;;;;;0.65;0.57;;;;;;;;;;5907293;28;20403;-74
2023/08/24 09:34:00;;;;;;;0.70;0.43;;;;;;;;;;5891764;28;20041;-75
2023/08/24 09:36:57;;;;;;;0.57;0.57;;;;;;;;;;5891279;28;20033;-75
2023/08/24 09:39:48;;;;;;;0.93;0.50;;;;;;;;;;5890780;28;20402;-76
2023/08/24 09:42:45;;;;;;;2.55;0.70;;;;;;;;;;5874174;28;20037;-76
2023/08/24 09:45:36;;;;;;;0.32;0.30;;;;;;;;;;5890791;28;20075;-74
2023/08/24 09:48:33;;;;;;;2.33;0.68;;;;;;;;;;5890571;28;20466;-75
2023/08/24 09:51:27;;;;;;;0.90;0.57;;;;;;;;;;5889411;28;20084;-77
2023/08/24 09:54:27;;;;;;;2.92;0.47;;;;;;;;;;5874589;28;20041;-76
2023/08/24 09:57:19;;;;;;;0.40;0.40;;;;;;;;;;5873139;28;20130;-76
2023/08/24 10:00:16;;;;;;;3.95;0.63;;;;;;;;;;5874388;28;20045;-74
2023/08/24 10:03:09;;;;;;;1.85;0.30;;;;;;;;;;5873544;28;20414;-74
2023/08/24 10:06:10;;;;;;;0.77;0.55;;;;;;;;;;5891067;28;20055;-76
2023/08/24 10:09:14;;;;;;;1.45;0.52;;;;;;;;;;5890754;28;20055;-76
2023/08/24 10:12:14;;;;;;;0.30;0.30;;;;;;;;;;5890832;28;20040;-76
2023/08/24 10:15:08;;;;;;;0.63;0.43;;;;;;;;;;5872648;28;20041;-75
2023/08/24 10:18:07;;;;;;;0.47;0.32;;;;;;;;;;5873296;28;20120;-77
2023/08/24 10:20:59;;;;;;;0.95;0.50;;;;;;;;;;5873530;28;20056;-75
2023/08/24 10:23:57;;;;;;;1.95;0.50;;;;;;;;;;5874258;28;20037;-74
2023/08/24 10:26:49;;;;;;;1.10;0.40;;;;;;;;;;5872606;28;20119;-74
2023/08/24 10:29:46;;;;;;;1.73;0.63;;;;;;;;;;5873570;28;20045;-73
2023/08/24 10:32:37;;;;;;;0.90;0.63;;;;;;;;;;5890215;28;20041;-74
2023/08/24 10:35:36;;;;;;;0.82;0.32;;;;;;;;;;5890161;28;20518;-74
2023/08/24 10:38:29;;;;;;;0.85;0.45;;;;;;;;;;5890024;28;20037;-76
2023/08/24 10:41:27;;;;;;;0.20;0.20;;;;;;;;;;5889985;28;20037;-74
2023/08/24 10:44:35;;;;;;;0.40;0.40;;;;;;;;;;5889977;28;20345;-74
2023/08/24 10:47:45;;;;;;;0.65;0.38;;;;;;;;;;5889724;28;20041;-76
2023/08/24 10:50:37;;;;;;;0.55;0.43;;;;;;;;;;5889852;28;20047;-75
2023/08/24 10:53:44;;;;;;;0.77;0.25;;;;;;;;;;5889859;28;20040;-74
2023/08/24 10:56:39;;;;;;;2.25;0.60;;;;;;;;;;5889686;28;20052;-77
2023/08/24 10:59:38;;;;;;;2.10;0.65;;;;;;;;;;5873086;28;20044;-75
2023/08/24 11:02:51;;;;;;;1.58;0.70;;;;;;;;;;5889442;28;20040;-77
2023/08/24 11:05:51;;;;;;;0.30;0.30;;;;;;;;;;5873324;28;20041;-74
2023/08/24 11:08:47;;;;;;;2.22;0.70;;;;;;;;;;5871658;28;20091;-75
2023/08/24 11:12:02;;;;;;;1.67;0.73;;;;;;;;;;5889077;28;20037;-76
2023/08/24 11:15:01;;;;;;;0.65;0.35;;;;;;;;;;5889646;28;20040;-76
2023/08/24 11:18:26;;;;;;;1.77;0.63;;;;;;;;;;5889351;28;20048;-73
2023/08/24 11:21:27;;;;;;;0.65;0.43;;;;;;;;;;5888691;28;20044;-75
2023/08/24 11:24:25;;;;;;;1.15;0.60;;;;;;;;;;5873565;28;20045;-75
2023/08/24 11:27:16;;;;;;;1.23;0.82;;;;;;;;;;5871059;28;20044;-75
2023/08/24 11:30:16;;;;;;;0.70;0.30;;;;;;;;;;5888525;28;20045;-74
2023/08/24 11:33:08;;;;;;;0.63;0.55;;;;;;;;;;5871221;28;20132;-74
2023/08/24 11:36:07;;;;;;;3.05;0.80;;;;;;;;;;5872268;28;20049;-76
2023/08/24 11:38:59;;;;;;;2.33;0.50;;;;;;;;;;5889446;28;20115;-75
2023/08/24 11:42:04;;;;;;;1.38;0.45;;;;;;;;;;5889050;28;20361;-76
2023/08/24 11:44:56;;;;;;;0.43;0.40;;;;;;;;;;5888859;28;20037;-73
2023/08/24 11:47:53;;;;;;;0.40;0.20;;;;;;;;;;5888978;28;20068;-75
2023/08/24 11:50:44;;;;;;;0.32;0.30;;;;;;;;;;5888454;28;20503;-75
2023/08/24 11:53:44;;;;;;;0.50;0.47;;;;;;;;;;5871654;28;20037;-75
2023/08/24 11:56:42;;;;;;;1.73;0.75;;;;;;;;;;5888322;28;20048;-76
2023/08/24 11:59:40;;;;;;;3.33;0.57;;;;;;;;;;5871719;28;20082;-76
2023/08/24 12:02:32;;;;;;;1.10;0.40;;;;;;;;;;5870373;28;20446;-76
2023/08/24 12:05:29;;;;;;;0.95;0.73;;;;;;;;;;5871339;28;20044;-75
2023/08/24 12:08:20;;;;;;;1.27;0.28;;;;;;;;;;5870204;28;20407;-76
2023/08/24 12:11:24;;;;;;;0.63;0.52;;;;;;;;;;5871208;28;20079;-75
2023/08/24 12:14:18;;;;;;;0.25;0.25;;;;;;;;;;5887461;28;20069;-75
2023/08/24 12:17:18;;;;;;;0.40;0.40;;;;;;;;;;5876635;28;20045;-74
2023/08/24 12:20:18;;;;;;;1.08;0.20;;;;;;;;;;5887212;28;20056;-74
2023/08/24 12:23:15;;;;;;;7.18;0.82;;;;;;;;;;5871213;28;20539;-73
2023/08/24 12:26:07;;;;;;;0.50;0.30;;;;;;;;;;5886953;28;20508;-75
2023/08/24 12:29:06;;;;;;;0.85;0.40;;;;;;;;;;5887191;28;20530;-75
2023/08/24 12:31:58;;;;;;;0.40;0.40;;;;;;;;;;5869848;28;20041;-74
2023/08/24 12:34:55;;;;;;;0.47;0.30;;;;;;;;;;5886903;28;20033;-75
2023/08/24 12:37:46;;;;;;;0.57;0.30;;;;;;;;;;5869284;28;20039;-75
2023/08/24 12:40:43;;;;;;;2.70;0.57;;;;;;;;;;5869646;28;20068;-74
2023/08/24 12:43:34;;;;;;;2.47;0.63;;;;;;;;;;5887262;28;20472;-73
2023/08/24 12:46:37;;;;;;;0.52;0.43;;;;;;;;;;5890054;28;20129;-75
2023/08/24 12:49:34;;;;;;;0.85;0.30;;;;;;;;;;5893477;28;20044;-75
2023/08/24 12:52:25;;;;;;;1.77;0.30;;;;;;;;;;5886838;28;20064;-74
2023/08/24 12:55:22;;;;;;;2.40;0.85;;;;;;;;;;5886932;28;20400;-74
2023/08/24 12:58:13;;;;;;;1.17;0.52;;;;;;;;;;5886670;28;20044;-74
2023/08/24 13:01:12;;;;;;;0.30;0.30;;;;;;;;;;5886635;28;20080;-74
2023/08/24 13:04:04;;;;;;;1.58;0.57;;;;;;;;;;5885541;28;20048;-76
2023/08/24 13:07:01;;;;;;;0.65;0.52;;;;;;;;;;5891762;28;20052;-75
2023/08/24 13:09:52;;;;;;;1.40;0.82;;;;;;;;;;5903607;28;20057;-77
2023/08/24 13:12:49;;;;;;;0.35;0.30;;;;;;;;;;5853558;28;20056;-76
2023/08/24 13:15:40;;;;;;;0.65;0.65;;;;;;;;;;5872512;28;20711;-75
2023/08/24 13:18:37;;;;;;;;;;;;;;;;;;5875748;28;20376;-75
2023/08/24 13:21:28;;;;;;;1.30;0.32;;;;;;;;;;5866228;28;19928;-76
2023/08/24 13:24:25;;;;;;;;;;;;;;;;;;5879601;28;20048;-77
2023/08/24 13:27:16;;;;;;;1.27;0.40;;;;;;;;;;5906033;28;19920;-74
2023/08/24 13:30:13;;;;;;;;;;;;;;;;;;5889337;28;20056;-75
2023/08/24 13:33:04;;;;;;;0.68;0.35;;;;;;;;;;5886379;28;19921;-74
2023/08/24 13:36:01;;;;;;;1.33;0.70;;;;;;;;;;5885954;28;20052;-75
2023/08/24 13:38:52;;;;;;;2.58;0.40;;;;;;;;;;5863893;28;20060;-74
2023/08/24 13:41:50;;;;;;;0.95;0.57;;;;;;;;;;5848076;28;20044;-74
2023/08/24 13:44:41;;;;;;;1.48;0.80;;;;;;;;;;5879224;28;20051;-74
2023/08/24 13:47:38;;;;;;;;;;;;;;;;;;5886657;28;20191;-75
2023/08/24 13:50:29;;;;;;;0.88;0.38;;;;;;;;;;5885760;28;20010;-75
2023/08/24 13:53:26;;;;;;;0.35;0.35;;;;;;;;;;5890353;28;20049;-74
2023/08/24 13:56:17;;;;;;;1.60;0.50;;;;;;;;;;5902221;28;20048;-74
2023/08/24 13:59:15;;;;;;;0.68;0.60;;;;;;;;;;5900801;28;20053;-74
2023/08/24 14:02:06;;;;;;;1.83;0.85;;;;;;;;;;5887339;28;20415;-74
2023/08/24 14:05:03;;;;;;;;;;;;;;;;;;5903780;28;20052;-73
2023/08/24 14:07:54;;;;;;;0.43;0.38;;;;;;;;;;5905597;28;19920;-75
2023/08/24 14:10:52;;;;;;;8.10;0.77;;;;;;;;;;5885622;28;20045;-74
2023/08/24 14:13:43;;;;;;;0.43;0.40;;;;;;;;;;5866695;28;20052;-73
2023/08/24 14:16:40;;;;;;;0.50;0.50;;;;;;;;;;5853965;28;20056;-74
2023/08/24 14:19:31;;;;;;;0.98;0.82;;;;;;;;;;5888008;28;20055;-75
2023/08/24 14:22:28;;;;;;;1.15;0.70;;;;;;;;;;5888575;28;20492;-72
2023/08/24 14:25:19;;;;;;;0.52;0.52;;;;;;;;;;5885849;28;20041;-74
2023/08/24 14:28:22;;;;;;;1.23;0.65;;;;;;;;;;5885145;28;20128;-72
2023/08/24 14:31:13;;;;;;;1.63;0.90;;;;;;;;;;5848868;28;20397;-71
2023/08/24 14:34:10;;;;;;;2.97;1.52;;;;;;;;;;5879365;28;20044;-73
2023/08/24 14:37:01;;;;;;;1.67;0.43;;;;;;;;;;5890221;28;20041;-74
2023/08/24 14:39:58;;;;;;;1.75;0.90;;;;;;;;;;5884901;28;20060;-74
2023/08/24 14:42:49;;;;;;;1.25;0.88;;;;;;;;;;5884514;28;20041;-72
2023/08/24 14:45:46;;;;;;;0.37;0.37;;;;;;;;;;5872803;28;20052;-71
2023/08/24 14:48:37;;;;;;;2.40;1.30;;;;;;;;;;5889014;28;20297;-72
2023/08/24 14:51:34;;;;;;;1.23;0.60;;;;;;;;;;5870515;28;20044;-74
2023/08/24 14:54:25;;;;;;;1.75;0.82;;;;;;;;;;5899327;28;20073;-75
2023/08/24 14:57:22;;;;;;;0.60;0.60;;;;;;;;;;5893480;28;20040;-74
2023/08/24 15:00:14;;;;;;;2.67;1.05;;;;;;;;;;5897868;28;20040;-76
2023/08/24 15:03:12;;;;;;;1.40;0.70;;;;;;;;;;5896558;28;20044;-76
2023/08/24 15:06:05;;;;;;;2.58;1.02;;;;;;;;;;5912491;28;20051;-74
2023/08/24 15:09:03;;;;;;;0.93;0.73;;;;;;;;;;5894602;28;20189;-73
2023/08/24 15:12:00;;;;;;;1.40;0.85;;;;;;;;;;5908441;28;20036;-74
2023/08/24 15:15:02;;;;;;;1.75;0.73;;;;;;;;;;5902525;28;20400;-74
2023/08/24 15:18:00;;;;;;;2.33;1.13;;;;;;;;;;5892936;28;20037;-74
2023/08/24 15:20:51;;;;;;;1.70;1.13;;;;;;;;;;5888193;28;20041;-74
2023/08/24 15:23:48;;;;;;;1.80;1.20;;;;;;;;;;5874494;28;20052;-75
2023/08/24 15:26:39;;;;;;;1.15;1.05;;;;;;;;;;5890207;28;20311;-75
2023/08/24 15:29:36;;;;;;;1.15;0.75;;;;;;;;;;5888382;28;20658;-74
2023/08/24 15:32:27;;;;;;;2.25;0.50;;;;;;;;;;5870711;28;20055;-75
2023/08/24 15:35:24;;;;;;;0.77;0.77;;;;;;;;;;5888024;28;20051;-75
2023/08/24 15:38:17;;;;;;;2.28;0.95;;;;;;;;;;5867877;28;20131;-73
2023/08/24 15:41:14;;;;;;;2.92;0.60;;;;;;;;;;5886169;28;20047;-75
2023/08/24 15:44:05;;;;;;;3.35;1.00;;;;;;;;;;5900019;28;20102;-73
2023/08/24 15:47:02;;;;;;;2.50;1.02;;;;;;;;;;5902321;28;20074;-73
2023/08/24 15:49:53;;;;;;;0.63;0.60;;;;;;;;;;5890552;28;20092;-73
2023/08/24 15:52:52;;;;;;;7.43;0.77;;;;;;;;;;5902819;28;20480;-74
2023/08/24 15:55:43;;;;;;;2.92;0.85;;;;;;;;;;5905223;28;20056;-75
2023/08/24 15:58:40;;;;;;;5.63;0.80;;;;;;;;;;5907660;28;20063;-73
2023/08/24 16:01:31;;;;;;;0.77;0.50;;;;;;;;;;5904839;28;20050;-75
2023/08/24 16:04:28;;;;;;;0.88;0.57;;;;;;;;;;5902857;28;20067;-74
2023/08/24 16:07:25;;;;;;;0.95;0.68;;;;;;;;;;5909419;28;20046;-74
2023/08/24 16:10:16;;;;;;;1.85;0.90;;;;;;;;;;5908166;28;20387;-74
2023/08/24 16:13:13;;;;;;;1.02;0.70;;;;;;;;;;5899389;28;20051;-75
2023/08/24 16:16:04;;;;;;;1.98;1.13;;;;;;;;;;5902449;28;20534;-73
2023/08/24 16:18:58;;;;;;;2.47;1.10;;;;;;;;;;5906755;28;20040;-73
2023/08/24 16:21:49;;;;;;;1.05;0.80;;;;;;;;;;5889263;28;20041;-75
2023/08/24 16:24:40;;;;;;;1.30;0.85;;;;;;;;;;5875564;28;20037;-74
2023/08/24 16:27:34;;;;;;;3.63;1.50;;;;;;;;;;5891442;28;20483;-73
2023/08/24 16:30:26;;;;;;;7.05;2.15;;;;;;;;;;5871064;28;20147;-74
2023/08/24 16:33:18;;;;;;;1.15;0.82;;;;;;;;;;5894926;28;20071;-74
2023/08/24 16:36:09;;;;;;;1.10;0.90;;;;;;;;;;5898100;28;20558;-76
2023/08/24 16:38:59;;;;;;;1.63;0.73;;;;;;;;;;5896006;28;20119;-73
2023/08/24 16:41:50;;;;;;;1.80;0.60;;;;;;;;;;5880163;28;20044;-75
2023/08/24 16:44:41;;;;;;;2.05;1.33;;;;;;;;;;5900370;28;20064;-75
2023/08/24 16:47:32;;;;;;;2.83;0.60;;;;;;;;;;5896188;28;20048;-74
2023/08/24 16:50:23;;;;;;;2.50;1.08;;;;;;;;;;5888993;28;20135;-73
2023/08/24 16:53:13;;;;;;;4.00;1.52;;;;;;;;;;5885915;28;20057;-75
2023/08/24 16:56:04;;;;;;;3.22;1.13;;;;;;;;;;5886399;28;20052;-73
2023/08/24 16:58:55;;;;;;;3.63;0.90;;;;;;;;;;5887154;28;20098;-73
2023/08/24 17:01:46;;;;;;;4.20;1.38;;;;;;;;;;5908419;28;20040;-74
2023/08/24 17:04:37;;;;;;;2.58;1.15;;;;;;;;;;5898202;28;20041;-76
2023/08/24 17:07:31;;;;;;;1.73;1.20;;;;;;;;;;5909415;28;20094;-75
2023/08/24 17:10:22;;;;;;;4.47;1.10;;;;;;;;;;5909321;28;20072;-76
2023/08/24 17:13:13;;;;;;;1.13;0.90;;;;;;;;;;5902050;28;20049;-73
2023/08/24 17:16:04;;;;;;;4.65;1.25;;;;;;;;;;5897743;28;20044;-75
2023/08/24 17:18:55;;;;;;;1.13;1.02;;;;;;;;;;5902808;28;20036;-75
2023/08/24 17:21:46;;;;;;;2.30;1.60;;;;;;;;;;5909025;28;20055;-74
2023/08/24 17:24:37;;;;;;;50.72;2.88;;;;;;;;;;5889041;28;20124;-74
2023/08/24 17:27:27;;;;;;;1.10;1.00;;;;;;;;;;5911857;28;20468;-75
2023/08/24 17:30:18;;;;;;;0.55;0.55;;;;;;;;;;5912622;28;20041;-74
2023/08/24 17:33:11;;;;;;;1.13;0.90;;;;;;;;;;5911928;28;20037;-75
2023/08/24 17:36:02;;;;;;;3.17;1.40;;;;;;;;;;5903240;28;20507;-75